createdAt,value
2017-10-10T00:00:04.707Z,918.93
2017-10-10T00:00:32.637Z,918.95
2017-10-10T00:01:00.557Z,918.93
2017-10-10T00:01:28.393Z,918.92
2017-10-10T00:01:56.232Z,918.88
2017-10-10T00:02:24.952Z,918.85
2017-10-10T00:02:53.668Z,918.86
2017-10-10T00:03:21.582Z,918.84
2017-10-10T00:03:49.480Z,918.76
2017-10-10T00:04:17.307Z,918.68
2017-10-10T00:04:45.118Z,918.7
2017-10-10T00:05:13.043Z,918.73
2017-10-10T00:05:40.943Z,918.81
2017-10-10T00:06:08.859Z,918.81
2017-10-10T00:06:36.687Z,918.84
2017-10-10T00:07:04.523Z,918.87
2017-10-10T00:07:33.340Z,918.93
2017-10-10T00:08:01.264Z,918.98
2017-10-10T00:08:29.001Z,919.02
2017-10-10T00:08:56.939Z,919.01
2017-10-10T00:09:24.852Z,919.05
2017-10-10T00:09:52.687Z,919.08
2017-10-10T00:10:20.502Z,919.07
2017-10-10T00:10:49.205Z,919.13
2017-10-10T00:11:17.021Z,919.13
2017-10-10T00:11:44.764Z,919.15
2017-10-10T00:12:12.586Z,919.17
2017-10-10T00:12:40.508Z,919.2
2017-10-10T00:13:08.423Z,919.22
2017-10-10T00:13:36.250Z,919.25
2017-10-10T00:14:04.179Z,919.26
2017-10-10T00:14:31.899Z,919.31
2017-10-10T00:14:59.713Z,919.38
2017-10-10T00:15:27.553Z,919.37
2017-10-10T00:15:55.381Z,919.35
2017-10-10T00:16:23.293Z,919.35
2017-10-10T00:16:51.211Z,919.38
2017-10-10T00:17:19.038Z,919.33
2017-10-10T00:17:46.842Z,919.36
2017-10-10T00:18:14.749Z,919.35
2017-10-10T00:18:42.479Z,919.34
2017-10-10T00:19:10.305Z,919.35
2017-10-10T00:19:38.036Z,919.35
2017-10-10T00:20:05.854Z,919.34
2017-10-10T00:20:33.759Z,919.33
2017-10-10T00:21:01.681Z,919.4
2017-10-10T00:21:29.500Z,919.39
2017-10-10T00:21:57.324Z,919.4
2017-10-10T00:22:25.327Z,919.36
2017-10-10T00:22:53.237Z,919.37
2017-10-10T00:23:21.150Z,919.38
2017-10-10T00:23:48.952Z,919.37
2017-10-10T00:24:16.841Z,919.36
2017-10-10T00:24:44.776Z,919.4
2017-10-10T00:25:12.600Z,919.39
2017-10-10T00:25:40.332Z,919.34
2017-10-10T00:26:08.868Z,919.33
2017-10-10T00:26:36.685Z,919.32
2017-10-10T00:27:04.596Z,919.3
2017-10-10T00:27:32.424Z,919.28
2017-10-10T00:28:00.347Z,919.3
2017-10-10T00:28:28.262Z,919.25
2017-10-10T00:28:56.006Z,919.28
2017-10-10T00:29:23.755Z,919.27
2017-10-10T00:29:52.360Z,919.28
2017-10-10T00:30:20.088Z,919.28
2017-10-10T00:30:48.006Z,919.31
2017-10-10T00:31:16.721Z,919.32
2017-10-10T00:31:44.650Z,919.39
2017-10-10T00:32:12.555Z,919.4
2017-10-10T00:32:40.383Z,919.43
2017-10-10T00:33:08.304Z,919.46
2017-10-10T00:33:36.127Z,919.48
2017-10-10T00:34:03.882Z,919.54
2017-10-10T00:34:31.709Z,919.55
2017-10-10T00:34:59.612Z,919.55
2017-10-10T00:35:27.339Z,919.61
2017-10-10T00:35:55.169Z,919.66
2017-10-10T00:36:23.881Z,919.63
2017-10-10T00:36:51.962Z,919.59
2017-10-10T00:37:58.296Z,919.67
2017-10-10T00:38:27.037Z,919.63
2017-10-10T00:38:54.780Z,919.65
2017-10-10T00:39:22.625Z,919.6
2017-10-10T00:39:50.276Z,919.62
2017-10-10T00:40:18.217Z,919.62
2017-10-10T00:40:46.063Z,919.61
2017-10-10T00:41:13.722Z,919.61
2017-10-10T00:41:41.560Z,919.6
2017-10-10T00:42:09.473Z,919.61
2017-10-10T00:42:37.379Z,919.68
2017-10-10T00:43:05.108Z,919.63
2017-10-10T00:43:32.937Z,919.68
2017-10-10T00:44:01.018Z,919.69
2017-10-10T00:44:28.911Z,919.71
2017-10-10T00:44:56.821Z,919.71
2017-10-10T00:45:24.645Z,919.7
2017-10-10T00:45:52.585Z,919.68
2017-10-10T00:46:20.507Z,919.72
2017-10-10T00:46:48.439Z,919.7
2017-10-10T00:47:16.268Z,919.69
2017-10-10T00:47:44.019Z,919.65
2017-10-10T00:48:11.942Z,919.65
2017-10-10T00:48:39.773Z,919.62
2017-10-10T00:49:07.524Z,919.63
2017-10-10T00:49:35.451Z,919.58
2017-10-10T00:50:03.291Z,919.54
2017-10-10T00:50:31.139Z,919.51
2017-10-10T00:50:59.079Z,919.51
2017-10-10T00:51:26.933Z,919.52
2017-10-10T00:51:54.873Z,919.46
2017-10-10T00:52:22.806Z,919.45
2017-10-10T00:52:50.640Z,919.46
2017-10-10T00:53:18.486Z,919.37
2017-10-10T00:53:46.387Z,919.46
2017-10-10T00:54:14.230Z,919.44
2017-10-10T00:54:42.960Z,919.45
2017-10-10T00:55:10.889Z,919.47
2017-10-10T00:55:39.631Z,919.44
2017-10-10T00:56:07.562Z,919.46
2017-10-10T00:56:35.375Z,919.42
2017-10-10T00:57:03.311Z,919.46
2017-10-10T00:57:31.053Z,919.46
2017-10-10T00:57:58.991Z,919.46
2017-10-10T00:58:26.863Z,919.44
2017-10-10T00:58:54.773Z,919.47
2017-10-10T00:59:22.700Z,919.44
2017-10-10T00:59:50.543Z,919.46
2017-10-10T01:00:18.477Z,919.49
2017-10-10T01:00:46.220Z,919.49
2017-10-10T01:01:14.050Z,919.44
2017-10-10T01:01:41.958Z,919.49
2017-10-10T01:02:09.788Z,919.44
2017-10-10T01:02:37.593Z,919.45
2017-10-10T01:03:05.402Z,919.44
2017-10-10T01:03:33.324Z,919.42
2017-10-10T01:04:01.236Z,919.38
2017-10-10T01:04:28.769Z,919.4
2017-10-10T01:04:56.506Z,919.38
2017-10-10T01:05:24.325Z,919.37
2017-10-10T01:05:52.146Z,919.38
2017-10-10T01:06:20.080Z,919.41
2017-10-10T01:06:47.913Z,919.37
2017-10-10T01:07:15.654Z,919.4
2017-10-10T01:07:43.510Z,919.41
2017-10-10T01:08:11.537Z,919.39
2017-10-10T01:08:39.442Z,919.43
2017-10-10T01:09:07.357Z,919.38
2017-10-10T01:09:35.276Z,919.41
2017-10-10T01:10:03.200Z,919.4
2017-10-10T01:10:31.025Z,919.38
2017-10-10T01:10:58.928Z,919.38
2017-10-10T01:11:26.846Z,919.35
2017-10-10T01:11:55.459Z,919.34
2017-10-10T01:12:23.372Z,919.35
2017-10-10T01:12:51.209Z,919.36
2017-10-10T01:13:18.954Z,919.37
2017-10-10T01:13:46.863Z,919.37
2017-10-10T01:14:14.667Z,919.35
2017-10-10T01:14:42.486Z,919.35
2017-10-10T01:15:11.207Z,919.35
2017-10-10T01:15:39.034Z,919.37
2017-10-10T01:16:45.315Z,919.33
2017-10-10T01:17:13.229Z,919.27
2017-10-10T01:17:40.869Z,919.24
2017-10-10T01:18:08.705Z,919.23
2017-10-10T01:18:36.648Z,919.19
2017-10-10T01:19:04.569Z,919.13
2017-10-10T01:19:33.204Z,919.08
2017-10-10T01:20:01.121Z,919.08
2017-10-10T01:20:28.955Z,919.04
2017-10-10T01:20:56.872Z,919.03
2017-10-10T01:21:24.778Z,918.98
2017-10-10T01:21:52.596Z,919
2017-10-10T01:22:20.320Z,919.01
2017-10-10T01:22:48.151Z,918.98
2017-10-10T01:23:16.201Z,918.96
2017-10-10T01:23:44.017Z,918.95
2017-10-10T01:24:11.748Z,918.96
2017-10-10T01:24:39.676Z,918.97
2017-10-10T01:25:07.507Z,918.97
2017-10-10T01:25:35.436Z,918.97
2017-10-10T01:26:03.253Z,918.98
2017-10-10T01:26:31.013Z,918.98
2017-10-10T01:26:58.927Z,918.93
2017-10-10T01:27:26.863Z,918.99
2017-10-10T01:27:54.778Z,918.97
2017-10-10T01:28:23.478Z,918.96
2017-10-10T01:28:51.389Z,918.96
2017-10-10T01:29:19.329Z,918.94
2017-10-10T01:29:47.245Z,918.94
2017-10-10T01:30:15.165Z,918.95
2017-10-10T01:30:43.100Z,919
2017-10-10T01:31:10.994Z,919
2017-10-10T01:31:38.916Z,919
2017-10-10T01:32:06.823Z,919
2017-10-10T01:32:34.752Z,919.02
2017-10-10T01:33:02.701Z,919.01
2017-10-10T01:33:30.455Z,919.02
2017-10-10T01:33:58.396Z,919.06
2017-10-10T01:34:26.144Z,919.07
2017-10-10T01:34:53.893Z,919.07
2017-10-10T01:35:21.711Z,919.05
2017-10-10T01:35:49.635Z,919.09
2017-10-10T01:36:17.455Z,919.06
2017-10-10T01:36:45.293Z,919.14
2017-10-10T01:37:13.036Z,919.06
2017-10-10T01:37:40.856Z,919.09
2017-10-10T01:38:08.688Z,919.14
2017-10-10T01:38:36.618Z,919.09
2017-10-10T01:39:04.533Z,919.07
2017-10-10T01:39:32.449Z,919.09
2017-10-10T01:40:01.157Z,919.08
2017-10-10T01:40:28.967Z,919.11
2017-10-10T01:40:57.676Z,919.12
2017-10-10T01:41:25.476Z,919.07
2017-10-10T01:41:54.170Z,919.09
2017-10-10T01:42:22.107Z,919.11
2017-10-10T01:42:49.927Z,919.1
2017-10-10T01:43:17.836Z,919.09
2017-10-10T01:43:45.573Z,919.06
2017-10-10T01:44:13.398Z,919.14
2017-10-10T01:44:41.214Z,919.15
2017-10-10T01:45:09.043Z,919.11
2017-10-10T01:45:36.959Z,919.15
2017-10-10T01:46:04.872Z,919.15
2017-10-10T01:46:32.789Z,919.17
2017-10-10T01:47:00.625Z,919.16
2017-10-10T01:47:28.272Z,919.14
2017-10-10T01:47:56.180Z,919.15
2017-10-10T01:48:24.016Z,919.19
2017-10-10T01:48:51.829Z,919.21
2017-10-10T01:49:19.766Z,919.14
2017-10-10T01:49:47.579Z,919.16
2017-10-10T01:50:15.498Z,919.16
2017-10-10T01:50:43.327Z,919.14
2017-10-10T01:51:12.049Z,919.15
2017-10-10T01:51:39.867Z,919.17
2017-10-10T01:52:07.695Z,919.21
2017-10-10T01:52:35.605Z,919.21
2017-10-10T01:53:03.426Z,919.17
2017-10-10T01:53:31.444Z,919.2
2017-10-10T01:53:59.264Z,919.2
2017-10-10T01:54:27.188Z,919.2
2017-10-10T01:55:33.470Z,919.18
2017-10-10T01:56:01.394Z,919.17
2017-10-10T01:56:29.320Z,919.18
2017-10-10T01:56:57.167Z,919.2
2017-10-10T01:57:25.001Z,919.21
2017-10-10T01:57:52.852Z,919.18
2017-10-10T01:58:20.787Z,919.21
2017-10-10T01:58:48.629Z,919.19
2017-10-10T01:59:16.562Z,919.18
2017-10-10T01:59:44.400Z,919.18
2017-10-10T02:00:12.317Z,919.15
2017-10-10T02:00:40.147Z,919.17
2017-10-10T02:01:07.965Z,919.17
2017-10-10T02:01:35.708Z,919.15
2017-10-10T02:02:03.514Z,919.22
2017-10-10T02:02:31.429Z,919.2
2017-10-10T02:02:59.336Z,919.18
2017-10-10T02:03:27.081Z,919.16
2017-10-10T02:03:54.903Z,919.17
2017-10-10T02:04:22.735Z,919.17
2017-10-10T02:04:50.559Z,919.16
2017-10-10T02:05:18.396Z,919.17
2017-10-10T02:05:46.317Z,919.14
2017-10-10T02:06:14.048Z,919.15
2017-10-10T02:06:41.873Z,919.16
2017-10-10T02:07:09.780Z,919.14
2017-10-10T02:07:37.692Z,919.13
2017-10-10T02:08:05.611Z,919.15
2017-10-10T02:08:33.589Z,919.15
2017-10-10T02:09:01.412Z,919.16
2017-10-10T02:09:29.256Z,919.16
2017-10-10T02:09:57.078Z,919.17
2017-10-10T02:10:25.006Z,919.16
2017-10-10T02:10:52.903Z,919.19
2017-10-10T02:11:20.809Z,919.16
2017-10-10T02:11:48.756Z,919.19
2017-10-10T02:12:16.489Z,919.13
2017-10-10T02:12:44.314Z,919.16
2017-10-10T02:13:12.150Z,919.15
2017-10-10T02:13:40.073Z,919.16
2017-10-10T02:14:07.880Z,919.16
2017-10-10T02:14:35.789Z,919.14
2017-10-10T02:15:03.601Z,919.15
2017-10-10T02:15:31.427Z,919.13
2017-10-10T02:15:59.350Z,919.13
2017-10-10T02:16:27.262Z,919.14
2017-10-10T02:16:55.079Z,919.12
2017-10-10T02:17:22.998Z,919.16
2017-10-10T02:17:50.727Z,919.15
2017-10-10T02:18:18.638Z,919.19
2017-10-10T02:18:46.540Z,919.18
2017-10-10T02:19:14.343Z,919.15
2017-10-10T02:19:42.156Z,919.17
2017-10-10T02:20:10.046Z,919.17
2017-10-10T02:20:37.937Z,919.18
2017-10-10T02:21:05.773Z,919.17
2017-10-10T02:21:33.685Z,919.16
2017-10-10T02:22:01.489Z,919.19
2017-10-10T02:22:29.137Z,919.19
2017-10-10T02:22:57.049Z,919.19
2017-10-10T02:23:25.021Z,919.18
2017-10-10T02:23:52.848Z,919.24
2017-10-10T02:24:20.676Z,919.23
2017-10-10T02:24:48.509Z,919.16
2017-10-10T02:25:16.433Z,919.16
2017-10-10T02:25:44.271Z,919.2
2017-10-10T02:26:12.100Z,919.16
2017-10-10T02:26:39.918Z,919.16
2017-10-10T02:27:07.731Z,919.16
2017-10-10T02:27:36.443Z,919.14
2017-10-10T02:28:04.366Z,919.14
2017-10-10T02:28:32.178Z,919.12
2017-10-10T02:29:00.100Z,919.12
2017-10-10T02:29:28.018Z,919.09
2017-10-10T02:29:55.932Z,919.07
2017-10-10T02:30:23.864Z,919.1
2017-10-10T02:30:51.699Z,919.12
2017-10-10T02:31:19.505Z,919.1
2017-10-10T02:31:47.316Z,919.06
2017-10-10T02:32:15.228Z,919.02
2017-10-10T02:32:43.141Z,919.05
2017-10-10T02:33:10.881Z,919.07
2017-10-10T02:34:17.109Z,919.03
2017-10-10T02:34:44.940Z,918.97
2017-10-10T02:35:12.866Z,918.96
2017-10-10T02:35:40.797Z,918.97
2017-10-10T02:36:08.643Z,918.97
2017-10-10T02:36:36.509Z,918.94
2017-10-10T02:37:04.475Z,918.93
2017-10-10T02:37:32.405Z,918.89
2017-10-10T02:38:00.249Z,918.93
2017-10-10T02:38:28.197Z,918.89
2017-10-10T02:38:56.017Z,918.91
2017-10-10T02:39:23.943Z,918.88
2017-10-10T02:39:51.676Z,918.9
2017-10-10T02:40:19.401Z,918.87
2017-10-10T02:40:47.298Z,918.9
2017-10-10T02:41:15.222Z,918.87
2017-10-10T02:41:42.938Z,918.88
2017-10-10T02:42:10.859Z,918.84
2017-10-10T02:42:38.683Z,918.87
2017-10-10T02:43:06.605Z,918.84
2017-10-10T02:43:34.344Z,918.83
2017-10-10T02:44:02.275Z,918.8
2017-10-10T02:44:30.101Z,918.82
2017-10-10T02:44:57.923Z,918.78
2017-10-10T02:45:25.829Z,918.76
2017-10-10T02:45:54.539Z,918.71
2017-10-10T02:46:22.361Z,918.72
2017-10-10T02:46:50.281Z,918.69
2017-10-10T02:47:18.106Z,918.66
2017-10-10T02:47:45.940Z,918.62
2017-10-10T02:48:13.766Z,918.61
2017-10-10T02:48:41.679Z,918.59
2017-10-10T02:49:09.597Z,918.59
2017-10-10T02:49:37.407Z,918.54
2017-10-10T02:50:05.317Z,918.52
2017-10-10T02:50:33.251Z,918.5
2017-10-10T02:51:01.169Z,918.5
2017-10-10T02:51:28.987Z,918.46
2017-10-10T02:51:56.824Z,918.42
2017-10-10T02:52:24.748Z,918.44
2017-10-10T02:52:52.650Z,918.39
2017-10-10T02:53:20.714Z,918.36
2017-10-10T02:53:48.533Z,918.38
2017-10-10T02:54:16.446Z,918.45
2017-10-10T02:54:45.153Z,918.45
2017-10-10T02:55:12.970Z,918.45
2017-10-10T02:55:41.673Z,918.48
2017-10-10T02:56:09.507Z,918.55
2017-10-10T02:56:37.423Z,918.58
2017-10-10T02:57:05.337Z,918.57
2017-10-10T02:57:33.235Z,918.57
2017-10-10T02:58:00.955Z,918.59
2017-10-10T02:58:28.885Z,918.63
2017-10-10T02:58:56.777Z,918.66
2017-10-10T02:59:24.667Z,918.62
2017-10-10T02:59:52.735Z,918.58
2017-10-10T03:00:20.658Z,918.6
2017-10-10T03:00:48.558Z,918.59
2017-10-10T03:01:16.384Z,918.64
2017-10-10T03:01:44.305Z,918.56
2017-10-10T03:02:12.121Z,918.49
2017-10-10T03:02:40.039Z,918.54
2017-10-10T03:03:07.865Z,918.6
2017-10-10T03:03:35.791Z,918.56
2017-10-10T03:04:03.619Z,918.56
2017-10-10T03:04:31.549Z,918.55
2017-10-10T03:04:59.366Z,918.57
2017-10-10T03:05:27.189Z,918.58
2017-10-10T03:05:55.099Z,918.55
2017-10-10T03:06:23.017Z,918.58
2017-10-10T03:06:51.732Z,918.53
2017-10-10T03:07:19.632Z,918.48
2017-10-10T03:07:47.455Z,918.54
2017-10-10T03:08:15.369Z,918.54
2017-10-10T03:08:43.340Z,918.52
2017-10-10T03:09:11.266Z,918.51
2017-10-10T03:09:39.191Z,918.47
2017-10-10T03:10:07.096Z,918.5
2017-10-10T03:10:34.900Z,918.47
2017-10-10T03:11:02.817Z,918.44
2017-10-10T03:11:30.649Z,918.48
2017-10-10T03:11:58.469Z,918.46
2017-10-10T03:13:04.700Z,918.43
2017-10-10T03:13:32.539Z,918.47
2017-10-10T03:14:00.468Z,918.42
2017-10-10T03:14:28.404Z,918.47
2017-10-10T03:14:56.148Z,918.46
2017-10-10T03:15:23.986Z,918.47
2017-10-10T03:15:51.936Z,918.5
2017-10-10T03:16:19.776Z,918.46
2017-10-10T03:16:47.708Z,918.45
2017-10-10T03:17:15.540Z,918.43
2017-10-10T03:17:43.451Z,918.48
2017-10-10T03:18:11.362Z,918.46
2017-10-10T03:18:39.178Z,918.44
2017-10-10T03:19:07.094Z,918.45
2017-10-10T03:19:34.994Z,918.41
2017-10-10T03:20:02.734Z,918.43
2017-10-10T03:20:30.458Z,918.41
2017-10-10T03:20:58.297Z,918.38
2017-10-10T03:21:26.217Z,918.39
2017-10-10T03:21:54.043Z,918.38
2017-10-10T03:22:21.956Z,918.34
2017-10-10T03:22:49.894Z,918.32
2017-10-10T03:23:17.619Z,918.3
2017-10-10T03:23:45.688Z,918.34
2017-10-10T03:24:13.590Z,918.29
2017-10-10T03:24:41.305Z,918.31
2017-10-10T03:25:09.999Z,918.34
2017-10-10T03:25:38.712Z,918.29
2017-10-10T03:26:06.538Z,918.33
2017-10-10T03:26:34.362Z,918.3
2017-10-10T03:27:02.289Z,918.31
2017-10-10T03:27:30.203Z,918.29
2017-10-10T03:27:58.034Z,918.32
2017-10-10T03:28:25.749Z,918.28
2017-10-10T03:28:53.755Z,918.31
2017-10-10T03:29:21.690Z,918.3
2017-10-10T03:29:49.604Z,918.32
2017-10-10T03:30:17.521Z,918.3
2017-10-10T03:30:45.448Z,918.35
2017-10-10T03:31:13.190Z,918.32
2017-10-10T03:31:41.002Z,918.33
2017-10-10T03:32:08.916Z,918.33
2017-10-10T03:32:36.645Z,918.35
2017-10-10T03:33:04.467Z,918.37
2017-10-10T03:33:32.395Z,918.34
2017-10-10T03:34:00.122Z,918.37
2017-10-10T03:34:28.033Z,918.35
2017-10-10T03:34:55.962Z,918.35
2017-10-10T03:35:23.777Z,918.34
2017-10-10T03:35:51.607Z,918.29
2017-10-10T03:36:19.521Z,918.36
2017-10-10T03:36:47.428Z,918.38
2017-10-10T03:37:15.263Z,918.32
2017-10-10T03:37:43.054Z,918.37
2017-10-10T03:38:10.767Z,918.29
2017-10-10T03:38:39.646Z,918.32
2017-10-10T03:39:07.467Z,918.33
2017-10-10T03:39:35.368Z,918.36
2017-10-10T03:40:04.105Z,918.32
2017-10-10T03:40:32.022Z,918.3
2017-10-10T03:40:59.735Z,918.31
2017-10-10T03:41:27.478Z,918.31
2017-10-10T03:41:55.303Z,918.35
2017-10-10T03:42:23.132Z,918.32
2017-10-10T03:42:50.968Z,918.32
2017-10-10T03:43:18.799Z,918.33
2017-10-10T03:43:46.603Z,918.33
2017-10-10T03:44:14.428Z,918.34
2017-10-10T03:44:42.248Z,918.31
2017-10-10T03:45:10.162Z,918.27
2017-10-10T03:45:38.088Z,918.26
2017-10-10T03:46:05.999Z,918.24
2017-10-10T03:46:33.740Z,918.24
2017-10-10T03:47:01.662Z,918.23
2017-10-10T03:47:29.492Z,918.2
2017-10-10T03:47:57.317Z,918.2
2017-10-10T03:48:25.141Z,918.16
2017-10-10T03:48:53.854Z,918.16
2017-10-10T03:49:21.757Z,918.18
2017-10-10T03:49:49.689Z,918.13
2017-10-10T03:50:17.516Z,918.14
2017-10-10T03:50:45.333Z,918.14
2017-10-10T03:51:52.363Z,918.13
2017-10-10T03:52:20.290Z,918.16
2017-10-10T03:52:49.019Z,918.16
2017-10-10T03:53:16.856Z,918.19
2017-10-10T03:53:45.037Z,918.19
2017-10-10T03:54:12.793Z,918.17
2017-10-10T03:54:40.549Z,918.16
2017-10-10T03:55:08.394Z,918.19
2017-10-10T03:55:36.233Z,918.2
2017-10-10T03:56:04.157Z,918.19
2017-10-10T03:56:31.982Z,918.2
2017-10-10T03:56:59.895Z,918.2
2017-10-10T03:57:27.707Z,918.19
2017-10-10T03:57:55.618Z,918.19
2017-10-10T03:58:23.511Z,918.17
2017-10-10T03:58:51.327Z,918.18
2017-10-10T03:59:19.231Z,918.2
2017-10-10T03:59:47.066Z,918.21
2017-10-10T04:00:14.993Z,918.23
2017-10-10T04:00:43.709Z,918.2
2017-10-10T04:01:11.531Z,918.21
2017-10-10T04:01:39.280Z,918.2
2017-10-10T04:02:07.035Z,918.25
2017-10-10T04:02:34.870Z,918.18
2017-10-10T04:03:02.803Z,918.22
2017-10-10T04:03:30.623Z,918.22
2017-10-10T04:03:58.542Z,918.23
2017-10-10T04:04:26.383Z,918.21
2017-10-10T04:04:54.219Z,918.21
2017-10-10T04:05:22.148Z,918.2
2017-10-10T04:05:50.064Z,918.19
2017-10-10T04:06:17.995Z,918.2
2017-10-10T04:06:45.927Z,918.22
2017-10-10T04:07:13.763Z,918.21
2017-10-10T04:07:41.679Z,918.22
2017-10-10T04:08:09.437Z,918.19
2017-10-10T04:08:37.358Z,918.2
2017-10-10T04:09:05.291Z,918.19
2017-10-10T04:09:33.223Z,918.19
2017-10-10T04:10:01.158Z,918.16
2017-10-10T04:10:29.069Z,918.12
2017-10-10T04:10:56.995Z,918.17
2017-10-10T04:11:24.822Z,918.14
2017-10-10T04:11:52.747Z,918.12
2017-10-10T04:12:20.590Z,918.14
2017-10-10T04:12:48.422Z,918.08
2017-10-10T04:13:16.238Z,918.1
2017-10-10T04:13:44.181Z,918.13
2017-10-10T04:14:12.113Z,918.07
2017-10-10T04:14:39.858Z,918.11
2017-10-10T04:15:07.589Z,918.1
2017-10-10T04:15:35.409Z,918.11
2017-10-10T04:16:03.241Z,918.12
2017-10-10T04:16:31.946Z,918.14
2017-10-10T04:16:59.755Z,918.16
2017-10-10T04:17:27.699Z,918.14
2017-10-10T04:17:55.627Z,918.15
2017-10-10T04:18:23.537Z,918.1
2017-10-10T04:18:51.464Z,918.13
2017-10-10T04:19:19.388Z,918.06
2017-10-10T04:19:47.032Z,918.12
2017-10-10T04:20:14.874Z,918.12
2017-10-10T04:20:42.715Z,918.12
2017-10-10T04:21:10.649Z,918.1
2017-10-10T04:21:38.840Z,918.06
2017-10-10T04:22:06.675Z,918.07
2017-10-10T04:22:34.497Z,918.05
2017-10-10T04:23:02.417Z,918.05
2017-10-10T04:23:30.159Z,918.05
2017-10-10T04:23:58.332Z,918.04
2017-10-10T04:24:26.268Z,918.01
2017-10-10T04:24:54.187Z,918
2017-10-10T04:25:22.024Z,917.96
2017-10-10T04:25:49.854Z,917.98
2017-10-10T04:26:17.781Z,917.96
2017-10-10T04:26:46.223Z,917.93
2017-10-10T04:27:24.265Z,917.9
2017-10-10T04:27:52.145Z,917.88
2017-10-10T04:28:19.910Z,917.81
2017-10-10T04:28:47.799Z,917.78
2017-10-10T04:29:15.775Z,917.77
2017-10-10T04:29:43.761Z,917.73
2017-10-10T04:30:49.937Z,917.69
2017-10-10T04:31:17.908Z,917.62
2017-10-10T04:31:45.823Z,917.57
2017-10-10T04:32:13.816Z,917.51
2017-10-10T04:32:41.614Z,917.63
2017-10-10T04:33:09.598Z,917.6
2017-10-10T04:33:37.589Z,917.59
2017-10-10T04:34:05.477Z,917.59
2017-10-10T04:34:33.360Z,917.64
2017-10-10T04:35:01.240Z,917.59
2017-10-10T04:35:29.210Z,917.66
2017-10-10T04:35:56.990Z,917.65
2017-10-10T04:36:24.756Z,917.66
2017-10-10T04:36:52.534Z,917.68
2017-10-10T04:37:20.468Z,917.65
2017-10-10T04:37:48.432Z,917.67
2017-10-10T04:38:16.118Z,917.55
2017-10-10T04:38:44.118Z,917.59
2017-10-10T04:39:12.215Z,917.59
2017-10-10T04:39:40.194Z,917.66
2017-10-10T04:40:08.165Z,917.64
2017-10-10T04:40:36.148Z,917.63
2017-10-10T04:41:04.133Z,917.64
2017-10-10T04:41:32.795Z,917.64
2017-10-10T04:42:00.668Z,917.63
2017-10-10T04:42:28.645Z,917.65
2017-10-10T04:42:57.321Z,917.64
2017-10-10T04:43:25.200Z,917.66
2017-10-10T04:43:53.075Z,917.66
2017-10-10T04:44:21.072Z,917.65
2017-10-10T04:44:49.041Z,917.68
2017-10-10T04:45:16.896Z,917.66
2017-10-10T04:45:44.906Z,917.64
2017-10-10T04:46:12.869Z,917.64
2017-10-10T04:46:40.844Z,917.63
2017-10-10T04:47:08.662Z,917.62
2017-10-10T04:47:36.550Z,917.6
2017-10-10T04:48:04.515Z,917.59
2017-10-10T04:48:32.501Z,917.55
2017-10-10T04:49:00.379Z,917.56
2017-10-10T04:49:28.239Z,917.59
2017-10-10T04:49:56.216Z,917.56
2017-10-10T04:50:24.183Z,917.54
2017-10-10T04:50:52.143Z,917.58
2017-10-10T04:51:20.122Z,917.53
2017-10-10T04:51:48.098Z,917.59
2017-10-10T04:52:15.969Z,917.6
2017-10-10T04:52:43.978Z,917.57
2017-10-10T04:53:11.859Z,917.57
2017-10-10T04:53:39.834Z,917.55
2017-10-10T04:54:07.862Z,917.59
2017-10-10T04:54:35.717Z,917.58
2017-10-10T04:55:03.694Z,917.58
2017-10-10T04:55:31.652Z,917.58
2017-10-10T04:55:59.487Z,917.6
2017-10-10T04:56:27.390Z,917.58
2017-10-10T04:56:55.359Z,917.6
2017-10-10T04:57:23.311Z,917.6
2017-10-10T04:57:51.213Z,917.6
2017-10-10T04:58:19.195Z,917.56
2017-10-10T04:58:47.073Z,917.55
2017-10-10T04:59:14.878Z,917.51
2017-10-10T04:59:42.844Z,917.47
2017-10-10T05:00:10.535Z,917.44
2017-10-10T05:00:38.425Z,917.39
2017-10-10T05:01:06.335Z,917.33
2017-10-10T05:01:34.305Z,917.35
2017-10-10T05:02:02.081Z,917.3
2017-10-10T05:02:30.044Z,917.28
2017-10-10T05:02:58.021Z,917.28
2017-10-10T05:03:25.911Z,917.28
2017-10-10T05:03:53.794Z,917.3
2017-10-10T05:04:21.779Z,917.27
2017-10-10T05:04:49.671Z,917.29
2017-10-10T05:05:17.559Z,917.23
2017-10-10T05:05:45.365Z,917.26
2017-10-10T05:06:13.246Z,917.26
2017-10-10T05:06:41.127Z,917.28
2017-10-10T05:07:09.080Z,917.28
2017-10-10T05:07:36.873Z,917.29
2017-10-10T05:08:05.647Z,917.34
2017-10-10T05:08:33.545Z,917.33
2017-10-10T05:09:39.810Z,917.33
2017-10-10T05:10:07.788Z,917.36
2017-10-10T05:10:35.670Z,917.32
2017-10-10T05:11:03.656Z,917.35
2017-10-10T05:11:31.537Z,917.38
2017-10-10T05:11:59.441Z,917.36
2017-10-10T05:12:27.424Z,917.36
2017-10-10T05:12:55.413Z,917.4
2017-10-10T05:13:23.294Z,917.4
2017-10-10T05:13:51.259Z,917.39
2017-10-10T05:14:20.038Z,917.39
2017-10-10T05:14:48.007Z,917.4
2017-10-10T05:15:15.942Z,917.39
2017-10-10T05:15:43.823Z,917.38
2017-10-10T05:16:11.578Z,917.37
2017-10-10T05:16:39.360Z,917.36
2017-10-10T05:17:07.242Z,917.4
2017-10-10T05:17:35.168Z,917.35
2017-10-10T05:18:03.163Z,917.37
2017-10-10T05:18:31.819Z,917.36
2017-10-10T05:18:59.784Z,917.36
2017-10-10T05:19:27.769Z,917.37
2017-10-10T05:19:55.569Z,917.42
2017-10-10T05:20:24.228Z,917.39
2017-10-10T05:20:52.784Z,917.4
2017-10-10T05:21:21.469Z,917.38
2017-10-10T05:21:49.442Z,917.37
2017-10-10T05:22:17.321Z,917.41
2017-10-10T05:22:45.285Z,917.36
2017-10-10T05:23:13.103Z,917.38
2017-10-10T05:23:40.877Z,917.36
2017-10-10T05:24:08.751Z,917.39
2017-10-10T05:24:36.767Z,917.38
2017-10-10T05:25:04.554Z,917.36
2017-10-10T05:25:32.445Z,917.35
2017-10-10T05:26:00.348Z,917.35
2017-10-10T05:26:28.327Z,917.35
2017-10-10T05:26:56.293Z,917.38
2017-10-10T05:27:24.178Z,917.39
2017-10-10T05:27:52.150Z,917.36
2017-10-10T05:28:20.017Z,917.37
2017-10-10T05:28:47.898Z,917.37
2017-10-10T05:29:15.865Z,917.32
2017-10-10T05:29:43.937Z,917.33
2017-10-10T05:30:11.837Z,917.32
2017-10-10T05:30:39.723Z,917.34
2017-10-10T05:31:07.697Z,917.33
2017-10-10T05:31:35.614Z,917.3
2017-10-10T05:32:03.489Z,917.35
2017-10-10T05:32:31.387Z,917.36
2017-10-10T05:32:59.255Z,917.38
2017-10-10T05:33:27.025Z,917.38
2017-10-10T05:33:54.925Z,917.37
2017-10-10T05:34:22.867Z,917.37
2017-10-10T05:34:50.801Z,917.38
2017-10-10T05:35:18.610Z,917.38
2017-10-10T05:35:46.401Z,917.36
2017-10-10T05:36:14.273Z,917.33
2017-10-10T05:36:42.278Z,917.33
2017-10-10T05:37:10.162Z,917.34
2017-10-10T05:37:38.140Z,917.34
2017-10-10T05:38:06.128Z,917.37
2017-10-10T05:38:33.917Z,917.34
2017-10-10T05:39:01.878Z,917.35
2017-10-10T05:39:29.767Z,917.34
2017-10-10T05:39:57.846Z,917.31
2017-10-10T05:40:25.619Z,917.3
2017-10-10T05:40:53.480Z,917.33
2017-10-10T05:41:21.448Z,917.3
2017-10-10T05:41:49.231Z,917.27
2017-10-10T05:42:17.026Z,917.29
2017-10-10T05:42:44.995Z,917.28
2017-10-10T05:43:13.785Z,917.31
2017-10-10T05:43:41.766Z,917.26
2017-10-10T05:44:09.742Z,917.29
2017-10-10T05:44:37.718Z,917.31
2017-10-10T05:45:05.705Z,917.31
2017-10-10T05:45:33.584Z,917.29
2017-10-10T05:46:01.455Z,917.28
2017-10-10T05:46:29.421Z,917.29
2017-10-10T05:46:57.313Z,917.28
2017-10-10T05:47:25.304Z,917.3
2017-10-10T05:48:31.379Z,917.25
2017-10-10T05:48:59.359Z,917.21
2017-10-10T05:49:27.155Z,917.26
2017-10-10T05:49:55.141Z,917.2
2017-10-10T05:50:23.116Z,917.26
2017-10-10T05:50:51.110Z,917.23
2017-10-10T05:51:18.929Z,917.23
2017-10-10T05:51:46.819Z,917.2
2017-10-10T05:52:14.703Z,917.23
2017-10-10T05:52:42.580Z,917.24
2017-10-10T05:53:10.457Z,917.22
2017-10-10T05:53:38.321Z,917.23
2017-10-10T05:54:06.278Z,917.19
2017-10-10T05:54:34.063Z,917.24
2017-10-10T05:55:02.062Z,917.25
2017-10-10T05:55:29.937Z,917.24